sensor_id;sensor_type;location;lat;lon;timestamp;P1;durP1;ratioP1;P2;durP2;ratioP2
10403;SDS011;5248;47.374;8.486;2023-03-13T00:01:26;1.90;;;1.80;;
10403;SDS011;5248;47.374;8.486;2023-03-13T00:03:54;2.47;;;2.27;;
10403;SDS011;5248;47.374;8.486;2023-03-13T00:06:22;3.10;;;1.90;;
10403;SDS011;5248;47.374;8.486;2023-03-13T00:08:48;2.37;;;1.83;;
10403;SDS011;5248;47.374;8.486;2023-03-13T00:11:15;2.67;;;1.60;;
10403;SDS011;5248;47.374;8.486;2023-03-13T00:13:41;2.90;;;1.50;;
10403;SDS011;5248;47.374;8.486;2023-03-13T00:16:08;4.10;;;1.40;;
10403;SDS011;5248;47.374;8.486;2023-03-13T00:18:36;1.40;;;1.10;;
10403;SDS011;5248;47.374;8.486;2023-03-13T00:21:04;2.53;;;1.27;;
10403;SDS011;5248;47.374;8.486;2023-03-13T00:23:33;1.97;;;1.10;;
10403;SDS011;5248;47.374;8.486;2023-03-13T00:26:00;1.47;;;1.10;;
10403;SDS011;5248;47.374;8.486;2023-03-13T00:28:28;1.03;;;0.90;;
10403;SDS011;5248;47.374;8.486;2023-03-13T00:31:02;0.87;;;0.87;;
10403;SDS011;5248;47.374;8.486;2023-03-13T00:33:29;1.80;;;1.13;;
10403;SDS011;5248;47.374;8.486;2023-03-13T00:35:57;1.20;;;1.10;;
10403;SDS011;5248;47.374;8.486;2023-03-13T00:38:24;1.10;;;0.70;;
10403;SDS011;5248;47.374;8.486;2023-03-13T00:40:58;0.83;;;0.83;;
10403;SDS011;5248;47.374;8.486;2023-03-13T00:43:25;1.60;;;0.87;;
10403;SDS011;5248;47.374;8.486;2023-03-13T00:45:51;1.07;;;1.00;;
10403;SDS011;5248;47.374;8.486;2023-03-13T00:48:18;2.93;;;0.97;;
10403;SDS011;5248;47.374;8.486;2023-03-13T00:50:44;2.53;;;1.00;;
10403;SDS011;5248;47.374;8.486;2023-03-13T00:53:11;1.90;;;1.07;;
10403;SDS011;5248;47.374;8.486;2023-03-13T00:55:37;0.80;;;0.80;;
10403;SDS011;5248;47.374;8.486;2023-03-13T00:58:05;3.50;;;0.80;;
10403;SDS011;5248;47.374;8.486;2023-03-13T01:00:31;0.70;;;0.70;;
10403;SDS011;5248;47.374;8.486;2023-03-13T01:02:58;1.23;;;0.77;;
10403;SDS011;5248;47.374;8.486;2023-03-13T01:05:25;0.83;;;0.83;;
10403;SDS011;5248;47.374;8.486;2023-03-13T01:07:51;0.63;;;0.50;;
10403;SDS011;5248;47.374;8.486;2023-03-13T01:10:17;1.23;;;0.73;;
10403;SDS011;5248;47.374;8.486;2023-03-13T01:12:44;1.80;;;1.00;;
10403;SDS011;5248;47.374;8.486;2023-03-13T01:15:12;1.03;;;0.60;;
10403;SDS011;5248;47.374;8.486;2023-03-13T01:17:39;1.70;;;0.93;;
10403;SDS011;5248;47.374;8.486;2023-03-13T01:20:06;1.30;;;0.70;;
10403;SDS011;5248;47.374;8.486;2023-03-13T01:22:33;1.40;;;1.03;;
10403;SDS011;5248;47.374;8.486;2023-03-13T01:25:00;1.40;;;1.00;;
10403;SDS011;5248;47.374;8.486;2023-03-13T01:27:27;1.03;;;0.97;;
10403;SDS011;5248;47.374;8.486;2023-03-13T01:29:54;0.67;;;0.67;;
10403;SDS011;5248;47.374;8.486;2023-03-13T01:32:21;2.60;;;1.00;;
10403;SDS011;5248;47.374;8.486;2023-03-13T01:34:48;1.17;;;1.00;;
10403;SDS011;5248;47.374;8.486;2023-03-13T01:37:14;0.50;;;0.50;;
10403;SDS011;5248;47.374;8.486;2023-03-13T01:39:41;0.70;;;0.70;;
10403;SDS011;5248;47.374;8.486;2023-03-13T01:42:07;1.17;;;0.80;;
10403;SDS011;5248;47.374;8.486;2023-03-13T01:44:48;1.93;;;0.70;;
10403;SDS011;5248;47.374;8.486;2023-03-13T01:47:15;0.73;;;0.60;;
10403;SDS011;5248;47.374;8.486;2023-03-13T01:49:43;0.90;;;0.77;;
10403;SDS011;5248;47.374;8.486;2023-03-13T01:52:12;1.07;;;0.97;;
10403;SDS011;5248;47.374;8.486;2023-03-13T01:54:41;0.73;;;0.50;;
10403;SDS011;5248;47.374;8.486;2023-03-13T01:57:09;1.90;;;0.73;;
10403;SDS011;5248;47.374;8.486;2023-03-13T01:59:39;0.87;;;0.80;;
10403;SDS011;5248;47.374;8.486;2023-03-13T02:02:07;1.63;;;0.90;;
10403;SDS011;5248;47.374;8.486;2023-03-13T02:04:35;1.47;;;1.00;;
10403;SDS011;5248;47.374;8.486;2023-03-13T02:07:06;2.47;;;0.60;;
10403;SDS011;5248;47.374;8.486;2023-03-13T02:09:35;1.33;;;0.63;;
10403;SDS011;5248;47.374;8.486;2023-03-13T02:12:05;0.77;;;0.63;;
10403;SDS011;5248;47.374;8.486;2023-03-13T02:14:34;0.70;;;0.70;;
10403;SDS011;5248;47.374;8.486;2023-03-13T02:17:03;0.90;;;0.80;;
10403;SDS011;5248;47.374;8.486;2023-03-13T02:19:32;1.20;;;1.10;;
10403;SDS011;5248;47.374;8.486;2023-03-13T02:22:03;1.20;;;0.93;;
10403;SDS011;5248;47.374;8.486;2023-03-13T02:24:35;2.30;;;1.50;;
10403;SDS011;5248;47.374;8.486;2023-03-13T02:27:05;1.63;;;1.23;;
10403;SDS011;5248;47.374;8.486;2023-03-13T02:29:34;1.93;;;1.10;;
10403;SDS011;5248;47.374;8.486;2023-03-13T02:32:00;0.80;;;0.80;;
10403;SDS011;5248;47.374;8.486;2023-03-13T02:34:28;1.27;;;1.17;;
10403;SDS011;5248;47.374;8.486;2023-03-13T02:36:57;2.00;;;1.40;;
10403;SDS011;5248;47.374;8.486;2023-03-13T02:39:23;1.07;;;1.07;;
10403;SDS011;5248;47.374;8.486;2023-03-13T02:41:50;1.63;;;0.90;;
10403;SDS011;5248;47.374;8.486;2023-03-13T02:44:18;3.33;;;1.13;;
10403;SDS011;5248;47.374;8.486;2023-03-13T02:46:44;1.53;;;1.10;;
10403;SDS011;5248;47.374;8.486;2023-03-13T02:49:18;1.20;;;0.67;;
10403;SDS011;5248;47.374;8.486;2023-03-13T02:51:47;3.57;;;1.10;;
10403;SDS011;5248;47.374;8.486;2023-03-13T02:54:15;0.77;;;0.77;;
10403;SDS011;5248;47.374;8.486;2023-03-13T02:56:44;1.13;;;1.03;;
10403;SDS011;5248;47.374;8.486;2023-03-13T02:59:13;0.70;;;0.70;;
10403;SDS011;5248;47.374;8.486;2023-03-13T03:01:41;1.00;;;0.90;;
10403;SDS011;5248;47.374;8.486;2023-03-13T03:04:07;0.93;;;0.83;;
10403;SDS011;5248;47.374;8.486;2023-03-13T03:06:34;1.93;;;0.80;;
10403;SDS011;5248;47.374;8.486;2023-03-13T03:09:01;0.80;;;0.80;;
10403;SDS011;5248;47.374;8.486;2023-03-13T03:11:28;0.53;;;0.53;;
10403;SDS011;5248;47.374;8.486;2023-03-13T03:13:54;0.67;;;0.50;;
10403;SDS011;5248;47.374;8.486;2023-03-13T03:16:21;2.63;;;0.83;;
10403;SDS011;5248;47.374;8.486;2023-03-13T03:18:49;1.80;;;0.50;;
10403;SDS011;5248;47.374;8.486;2023-03-13T03:21:15;0.90;;;0.70;;
10403;SDS011;5248;47.374;8.486;2023-03-13T03:23:41;1.33;;;0.63;;
10403;SDS011;5248;47.374;8.486;2023-03-13T03:26:08;0.63;;;0.60;;
10403;SDS011;5248;47.374;8.486;2023-03-13T03:28:35;1.40;;;0.77;;
10403;SDS011;5248;47.374;8.486;2023-03-13T03:31:02;1.23;;;0.70;;
10403;SDS011;5248;47.374;8.486;2023-03-13T03:33:29;1.57;;;0.60;;
10403;SDS011;5248;47.374;8.486;2023-03-13T03:35:59;0.63;;;0.63;;
10403;SDS011;5248;47.374;8.486;2023-03-13T03:38:26;0.60;;;0.60;;
10403;SDS011;5248;47.374;8.486;2023-03-13T03:40:52;0.73;;;0.70;;
10403;SDS011;5248;47.374;8.486;2023-03-13T03:43:19;1.97;;;0.70;;
10403;SDS011;5248;47.374;8.486;2023-03-13T03:45:45;0.87;;;0.87;;
10403;SDS011;5248;47.374;8.486;2023-03-13T03:48:12;0.70;;;0.70;;
10403;SDS011;5248;47.374;8.486;2023-03-13T03:50:38;1.10;;;0.80;;
10403;SDS011;5248;47.374;8.486;2023-03-13T03:53:06;0.70;;;0.70;;
10403;SDS011;5248;47.374;8.486;2023-03-13T03:55:34;0.87;;;0.60;;
10403;SDS011;5248;47.374;8.486;2023-03-13T03:58:00;1.33;;;0.60;;
10403;SDS011;5248;47.374;8.486;2023-03-13T04:00:27;0.97;;;0.90;;
10403;SDS011;5248;47.374;8.486;2023-03-13T04:02:53;2.23;;;0.90;;
10403;SDS011;5248;47.374;8.486;2023-03-13T04:05:20;1.07;;;0.90;;
10403;SDS011;5248;47.374;8.486;2023-03-13T04:07:46;1.23;;;0.93;;
10403;SDS011;5248;47.374;8.486;2023-03-13T04:10:18;1.37;;;0.97;;
10403;SDS011;5248;47.374;8.486;2023-03-13T04:12:44;0.83;;;0.83;;
10403;SDS011;5248;47.374;8.486;2023-03-13T04:15:11;0.73;;;0.73;;
10403;SDS011;5248;47.374;8.486;2023-03-13T04:17:37;1.73;;;0.90;;
10403;SDS011;5248;47.374;8.486;2023-03-13T04:20:05;0.80;;;0.80;;
10403;SDS011;5248;47.374;8.486;2023-03-13T04:22:32;0.93;;;0.70;;
10403;SDS011;5248;47.374;8.486;2023-03-13T04:24:59;1.03;;;0.93;;
10403;SDS011;5248;47.374;8.486;2023-03-13T04:27:26;0.70;;;0.70;;
10403;SDS011;5248;47.374;8.486;2023-03-13T04:29:53;1.07;;;0.63;;
10403;SDS011;5248;47.374;8.486;2023-03-13T04:32:19;1.40;;;0.67;;
10403;SDS011;5248;47.374;8.486;2023-03-13T04:34:46;0.80;;;0.80;;
10403;SDS011;5248;47.374;8.486;2023-03-13T04:37:12;1.30;;;0.70;;
10403;SDS011;5248;47.374;8.486;2023-03-13T04:39:38;1.57;;;0.67;;
10403;SDS011;5248;47.374;8.486;2023-03-13T04:42:05;0.30;;;0.30;;
10403;SDS011;5248;47.374;8.486;2023-03-13T04:44:33;1.23;;;0.63;;
10403;SDS011;5248;47.374;8.486;2023-03-13T04:46:59;0.80;;;0.67;;
10403;SDS011;5248;47.374;8.486;2023-03-13T04:49:26;0.97;;;0.63;;
10403;SDS011;5248;47.374;8.486;2023-03-13T04:51:52;0.70;;;0.70;;
10403;SDS011;5248;47.374;8.486;2023-03-13T04:54:19;1.07;;;0.60;;
10403;SDS011;5248;47.374;8.486;2023-03-13T04:56:45;1.07;;;0.80;;
10403;SDS011;5248;47.374;8.486;2023-03-13T04:59:12;1.80;;;0.83;;
10403;SDS011;5248;47.374;8.486;2023-03-13T05:01:41;0.60;;;0.60;;
10403;SDS011;5248;47.374;8.486;2023-03-13T05:04:07;0.70;;;0.70;;
10403;SDS011;5248;47.374;8.486;2023-03-13T05:06:34;1.23;;;0.70;;
10403;SDS011;5248;47.374;8.486;2023-03-13T05:09:01;1.03;;;0.70;;
10403;SDS011;5248;47.374;8.486;2023-03-13T05:11:28;0.60;;;0.60;;
10403;SDS011;5248;47.374;8.486;2023-03-13T05:13:55;1.50;;;0.80;;
10403;SDS011;5248;47.374;8.486;2023-03-13T05:16:22;1.67;;;0.83;;
10403;SDS011;5248;47.374;8.486;2023-03-13T05:18:51;1.07;;;0.80;;
10403;SDS011;5248;47.374;8.486;2023-03-13T05:21:18;0.90;;;0.83;;
10403;SDS011;5248;47.374;8.486;2023-03-13T05:23:44;1.13;;;0.70;;
10403;SDS011;5248;47.374;8.486;2023-03-13T05:26:11;0.50;;;0.50;;
10403;SDS011;5248;47.374;8.486;2023-03-13T05:28:37;1.73;;;0.80;;
10403;SDS011;5248;47.374;8.486;2023-03-13T05:31:03;0.97;;;0.90;;
10403;SDS011;5248;47.374;8.486;2023-03-13T05:33:30;0.67;;;0.67;;
10403;SDS011;5248;47.374;8.486;2023-03-13T05:35:58;0.60;;;0.60;;
10403;SDS011;5248;47.374;8.486;2023-03-13T05:38:24;0.83;;;0.70;;
10403;SDS011;5248;47.374;8.486;2023-03-13T05:40:51;1.43;;;0.80;;
10403;SDS011;5248;47.374;8.486;2023-03-13T05:43:17;1.67;;;0.80;;
10403;SDS011;5248;47.374;8.486;2023-03-13T05:45:43;1.50;;;0.80;;
10403;SDS011;5248;47.374;8.486;2023-03-13T05:48:10;1.83;;;1.00;;
10403;SDS011;5248;47.374;8.486;2023-03-13T05:50:36;1.10;;;0.80;;
10403;SDS011;5248;47.374;8.486;2023-03-13T05:53:04;4.57;;;1.20;;
10403;SDS011;5248;47.374;8.486;2023-03-13T05:55:31;0.87;;;0.77;;
10403;SDS011;5248;47.374;8.486;2023-03-13T05:57:58;1.03;;;0.90;;
10403;SDS011;5248;47.374;8.486;2023-03-13T06:00:24;1.27;;;1.10;;
10403;SDS011;5248;47.374;8.486;2023-03-13T06:02:51;1.23;;;0.70;;
10403;SDS011;5248;47.374;8.486;2023-03-13T06:05:17;0.73;;;0.73;;
10403;SDS011;5248;47.374;8.486;2023-03-13T06:07:44;0.83;;;0.77;;
10403;SDS011;5248;47.374;8.486;2023-03-13T06:10:12;2.00;;;1.07;;
10403;SDS011;5248;47.374;8.486;2023-03-13T06:12:38;0.80;;;0.80;;
10403;SDS011;5248;47.374;8.486;2023-03-13T06:15:05;1.07;;;1.07;;
10403;SDS011;5248;47.374;8.486;2023-03-13T06:17:33;1.07;;;0.80;;
10403;SDS011;5248;47.374;8.486;2023-03-13T06:20:00;1.33;;;0.80;;
10403;SDS011;5248;47.374;8.486;2023-03-13T06:22:27;3.13;;;0.93;;
10403;SDS011;5248;47.374;8.486;2023-03-13T06:24:54;3.13;;;1.07;;
10403;SDS011;5248;47.374;8.486;2023-03-13T06:27:22;1.00;;;0.90;;
10403;SDS011;5248;47.374;8.486;2023-03-13T06:29:49;1.03;;;0.90;;
10403;SDS011;5248;47.374;8.486;2023-03-13T06:32:15;1.80;;;1.17;;
10403;SDS011;5248;47.374;8.486;2023-03-13T06:34:41;0.97;;;0.70;;
10403;SDS011;5248;47.374;8.486;2023-03-13T06:37:08;3.60;;;1.00;;
10403;SDS011;5248;47.374;8.486;2023-03-13T06:39:34;1.57;;;1.10;;
10403;SDS011;5248;47.374;8.486;2023-03-13T06:42:01;3.20;;;1.13;;
10403;SDS011;5248;47.374;8.486;2023-03-13T06:44:29;1.50;;;1.33;;
10403;SDS011;5248;47.374;8.486;2023-03-13T06:46:55;2.30;;;1.10;;
10403;SDS011;5248;47.374;8.486;2023-03-13T06:49:21;3.67;;;1.30;;
10403;SDS011;5248;47.374;8.486;2023-03-13T06:51:48;1.00;;;1.00;;
10403;SDS011;5248;47.374;8.486;2023-03-13T06:54:14;1.57;;;0.70;;
10403;SDS011;5248;47.374;8.486;2023-03-13T06:56:41;1.23;;;0.93;;
10403;SDS011;5248;47.374;8.486;2023-03-13T06:59:07;1.00;;;0.80;;
10403;SDS011;5248;47.374;8.486;2023-03-13T07:01:35;0.60;;;0.60;;
10403;SDS011;5248;47.374;8.486;2023-03-13T07:04:01;0.93;;;0.80;;
10403;SDS011;5248;47.374;8.486;2023-03-13T07:06:28;0.80;;;0.80;;
10403;SDS011;5248;47.374;8.486;2023-03-13T07:08:54;1.27;;;0.90;;
10403;SDS011;5248;47.374;8.486;2023-03-13T07:11:21;0.93;;;0.80;;
10403;SDS011;5248;47.374;8.486;2023-03-13T07:13:49;2.03;;;0.87;;
10403;SDS011;5248;47.374;8.486;2023-03-13T07:16:15;1.37;;;0.60;;
10403;SDS011;5248;47.374;8.486;2023-03-13T07:18:43;1.17;;;1.03;;
10403;SDS011;5248;47.374;8.486;2023-03-13T07:21:11;1.90;;;1.20;;
10403;SDS011;5248;47.374;8.486;2023-03-13T07:23:38;1.40;;;0.97;;
10403;SDS011;5248;47.374;8.486;2023-03-13T07:26:05;1.10;;;0.70;;
10403;SDS011;5248;47.374;8.486;2023-03-13T07:28:33;1.30;;;1.10;;
10403;SDS011;5248;47.374;8.486;2023-03-13T07:31:03;2.80;;;1.00;;
10403;SDS011;5248;47.374;8.486;2023-03-13T07:33:31;0.83;;;0.83;;
10403;SDS011;5248;47.374;8.486;2023-03-13T07:35:59;0.70;;;0.70;;
10403;SDS011;5248;47.374;8.486;2023-03-13T07:38:25;0.50;;;0.50;;
10403;SDS011;5248;47.374;8.486;2023-03-13T07:40:54;0.87;;;0.80;;
10403;SDS011;5248;47.374;8.486;2023-03-13T07:43:21;1.50;;;0.80;;
10403;SDS011;5248;47.374;8.486;2023-03-13T07:45:51;0.63;;;0.63;;
10403;SDS011;5248;47.374;8.486;2023-03-13T07:48:19;0.97;;;0.70;;
10403;SDS011;5248;47.374;8.486;2023-03-13T07:50:46;0.57;;;0.57;;
10403;SDS011;5248;47.374;8.486;2023-03-13T07:53:14;1.17;;;1.00;;
10403;SDS011;5248;47.374;8.486;2023-03-13T07:55:50;1.30;;;0.60;;
10403;SDS011;5248;47.374;8.486;2023-03-13T07:58:17;0.83;;;0.70;;
10403;SDS011;5248;47.374;8.486;2023-03-13T08:00:44;0.90;;;0.90;;
10403;SDS011;5248;47.374;8.486;2023-03-13T08:03:10;0.98;;;0.90;;
10403;SDS011;5248;47.374;8.486;2023-03-13T08:05:36;0.90;;;0.90;;
10403;SDS011;5248;47.374;8.486;2023-03-13T08:08:03;1.17;;;0.70;;
10403;SDS011;5248;47.374;8.486;2023-03-13T08:10:31;0.93;;;0.70;;
10403;SDS011;5248;47.374;8.486;2023-03-13T08:12:57;0.80;;;0.80;;
10403;SDS011;5248;47.374;8.486;2023-03-13T08:15:24;0.73;;;0.73;;
10403;SDS011;5248;47.374;8.486;2023-03-13T08:17:50;0.70;;;0.70;;
10403;SDS011;5248;47.374;8.486;2023-03-13T08:20:17;0.68;;;0.68;;
10403;SDS011;5248;47.374;8.486;2023-03-13T08:22:44;0.82;;;0.82;;
10403;SDS011;5248;47.374;8.486;2023-03-13T08:25:11;2.17;;;0.80;;
10403;SDS011;5248;47.374;8.486;2023-03-13T08:27:39;1.27;;;0.98;;
10403;SDS011;5248;47.374;8.486;2023-03-13T08:30:06;0.70;;;0.63;;
10403;SDS011;5248;47.374;8.486;2023-03-13T08:32:34;0.90;;;0.75;;
10403;SDS011;5248;47.374;8.486;2023-03-13T08:35:00;0.70;;;0.70;;
10403;SDS011;5248;47.374;8.486;2023-03-13T08:37:27;2.20;;;0.85;;
10403;SDS011;5248;47.374;8.486;2023-03-13T08:39:53;1.13;;;0.93;;
10403;SDS011;5248;47.374;8.486;2023-03-13T08:42:20;0.70;;;0.70;;
10403;SDS011;5248;47.374;8.486;2023-03-13T08:44:48;0.45;;;0.45;;
10403;SDS011;5248;47.374;8.486;2023-03-13T08:47:15;0.50;;;0.50;;
10403;SDS011;5248;47.374;8.486;2023-03-13T08:49:42;0.57;;;0.57;;
10403;SDS011;5248;47.374;8.486;2023-03-13T08:52:08;1.05;;;0.77;;
10403;SDS011;5248;47.374;8.486;2023-03-13T08:54:35;1.90;;;1.20;;
10403;SDS011;5248;47.374;8.486;2023-03-13T08:57:01;3.92;;;1.35;;
10403;SDS011;5248;47.374;8.486;2023-03-13T08:59:28;2.35;;;1.15;;
10403;SDS011;5248;47.374;8.486;2023-03-13T09:01:56;1.58;;;0.80;;
10403;SDS011;5248;47.374;8.486;2023-03-13T09:04:22;1.35;;;1.13;;
10403;SDS011;5248;47.374;8.486;2023-03-13T09:06:49;3.35;;;1.17;;
10403;SDS011;5248;47.374;8.486;2023-03-13T09:09:15;0.80;;;0.80;;
10403;SDS011;5248;47.374;8.486;2023-03-13T09:11:42;0.70;;;0.70;;
10403;SDS011;5248;47.374;8.486;2023-03-13T09:14:08;0.70;;;0.68;;
10403;SDS011;5248;47.374;8.486;2023-03-13T09:16:35;0.60;;;0.60;;
10403;SDS011;5248;47.374;8.486;2023-03-13T09:19:03;1.73;;;0.65;;
10403;SDS011;5248;47.374;8.486;2023-03-13T09:21:30;1.15;;;0.80;;
10403;SDS011;5248;47.374;8.486;2023-03-13T09:23:57;2.25;;;0.82;;
10403;SDS011;5248;47.374;8.486;2023-03-13T09:26:24;1.20;;;1.10;;
10403;SDS011;5248;47.374;8.486;2023-03-13T09:28:51;2.25;;;1.55;;
10403;SDS011;5248;47.374;8.486;2023-03-13T09:31:18;1.50;;;1.02;;
10403;SDS011;5248;47.374;8.486;2023-03-13T09:33:46;2.88;;;0.70;;
10403;SDS011;5248;47.374;8.486;2023-03-13T09:36:15;0.70;;;0.70;;
10403;SDS011;5248;47.374;8.486;2023-03-13T09:38:42;0.85;;;0.85;;
10403;SDS011;5248;47.374;8.486;2023-03-13T09:41:14;0.80;;;0.80;;
10403;SDS011;5248;47.374;8.486;2023-03-13T09:43:46;1.77;;;0.80;;
10403;SDS011;5248;47.374;8.486;2023-03-13T09:46:17;0.70;;;0.70;;
10403;SDS011;5248;47.374;8.486;2023-03-13T09:48:47;0.65;;;0.60;;
10403;SDS011;5248;47.374;8.486;2023-03-13T09:51:18;1.20;;;0.73;;
10403;SDS011;5248;47.374;8.486;2023-03-13T09:53:48;0.80;;;0.73;;
10403;SDS011;5248;47.374;8.486;2023-03-13T09:56:19;1.23;;;0.55;;
10403;SDS011;5248;47.374;8.486;2023-03-13T09:58:50;1.77;;;0.63;;
10403;SDS011;5248;47.374;8.486;2023-03-13T10:01:19;0.70;;;0.70;;
10403;SDS011;5248;47.374;8.486;2023-03-13T10:03:53;1.13;;;0.70;;
10403;SDS011;5248;47.374;8.486;2023-03-13T10:06:26;2.10;;;0.80;;
10403;SDS011;5248;47.374;8.486;2023-03-13T10:08:54;1.55;;;0.63;;
10403;SDS011;5248;47.374;8.486;2023-03-13T10:11:26;1.60;;;0.70;;
10403;SDS011;5248;47.374;8.486;2023-03-13T10:13:55;2.78;;;0.88;;
10403;SDS011;5248;47.374;8.486;2023-03-13T10:16:26;1.00;;;0.70;;
10403;SDS011;5248;47.374;8.486;2023-03-13T10:18:54;0.80;;;0.80;;
10403;SDS011;5248;47.374;8.486;2023-03-13T10:21:22;1.17;;;0.73;;
10403;SDS011;5248;47.374;8.486;2023-03-13T10:23:53;2.00;;;1.00;;
10403;SDS011;5248;47.374;8.486;2023-03-13T10:26:23;2.78;;;1.50;;
10403;SDS011;5248;47.374;8.486;2023-03-13T10:28:52;3.22;;;1.58;;
10403;SDS011;5248;47.374;8.486;2023-03-13T10:31:21;1.00;;;0.90;;
10403;SDS011;5248;47.374;8.486;2023-03-13T10:33:51;1.90;;;1.00;;
10403;SDS011;5248;47.374;8.486;2023-03-13T10:36:18;1.48;;;0.73;;
10403;SDS011;5248;47.374;8.486;2023-03-13T10:38:46;0.68;;;0.55;;
10403;SDS011;5248;47.374;8.486;2023-03-13T10:41:24;1.77;;;0.80;;
10403;SDS011;5248;47.374;8.486;2023-03-13T10:43:53;1.58;;;0.68;;
10403;SDS011;5248;47.374;8.486;2023-03-13T10:46:24;0.93;;;0.70;;
10403;SDS011;5248;47.374;8.486;2023-03-13T10:48:52;0.80;;;0.68;;
10403;SDS011;5248;47.374;8.486;2023-03-13T10:51:20;0.75;;;0.70;;
10403;SDS011;5248;47.374;8.486;2023-03-13T10:53:47;1.00;;;0.75;;
10403;SDS011;5248;47.374;8.486;2023-03-13T10:56:17;1.58;;;0.52;;
10403;SDS011;5248;47.374;8.486;2023-03-13T10:58:50;3.08;;;0.80;;
10403;SDS011;5248;47.374;8.486;2023-03-13T11:01:17;0.70;;;0.60;;
10403;SDS011;5248;47.374;8.486;2023-03-13T11:03:47;0.60;;;0.60;;
10403;SDS011;5248;47.374;8.486;2023-03-13T11:06:22;0.65;;;0.65;;
10403;SDS011;5248;47.374;8.486;2023-03-13T11:08:57;0.77;;;0.60;;
10403;SDS011;5248;47.374;8.486;2023-03-13T11:11:25;1.10;;;0.70;;
10403;SDS011;5248;47.374;8.486;2023-03-13T11:13:56;0.60;;;0.60;;
10403;SDS011;5248;47.374;8.486;2023-03-13T11:16:33;2.25;;;0.60;;
10403;SDS011;5248;47.374;8.486;2023-03-13T11:19:09;0.63;;;0.57;;
10403;SDS011;5248;47.374;8.486;2023-03-13T11:21:53;0.50;;;0.50;;
10403;SDS011;5248;47.374;8.486;2023-03-13T11:24:27;0.47;;;0.47;;
10403;SDS011;5248;47.374;8.486;2023-03-13T11:27:01;0.80;;;0.60;;
10403;SDS011;5248;47.374;8.486;2023-03-13T11:29:39;0.52;;;0.52;;
10403;SDS011;5248;47.374;8.486;2023-03-13T11:32:12;1.20;;;0.75;;
10403;SDS011;5248;47.374;8.486;2023-03-13T11:34:46;0.50;;;0.50;;
10403;SDS011;5248;47.374;8.486;2023-03-13T11:37:17;0.70;;;0.70;;
10403;SDS011;5248;47.374;8.486;2023-03-13T11:39:50;1.05;;;0.60;;
10403;SDS011;5248;47.374;8.486;2023-03-13T11:42:30;1.02;;;0.57;;
10403;SDS011;5248;47.374;8.486;2023-03-13T11:45:07;0.63;;;0.63;;
10403;SDS011;5248;47.374;8.486;2023-03-13T11:47:43;1.63;;;0.60;;
10403;SDS011;5248;47.374;8.486;2023-03-13T11:53:03;0.57;;;0.50;;
10403;SDS011;5248;47.374;8.486;2023-03-13T11:58:30;0.68;;;0.50;;
10403;SDS011;5248;47.374;8.486;2023-03-13T12:01:05;0.40;;;0.40;;
10403;SDS011;5248;47.374;8.486;2023-03-13T12:03:35;0.80;;;0.80;;
10403;SDS011;5248;47.374;8.486;2023-03-13T12:06:05;0.93;;;0.68;;
10403;SDS011;5248;47.374;8.486;2023-03-13T12:08:33;0.43;;;0.43;;
10403;SDS011;5248;47.374;8.486;2023-03-13T12:11:04;1.35;;;0.57;;
10403;SDS011;5248;47.374;8.486;2023-03-13T12:13:36;1.98;;;0.40;;
10403;SDS011;5248;47.374;8.486;2023-03-13T12:16:09;0.60;;;0.60;;
10403;SDS011;5248;47.374;8.486;2023-03-13T12:18:38;2.05;;;0.68;;
10403;SDS011;5248;47.374;8.486;2023-03-13T12:21:06;1.63;;;0.60;;
10403;SDS011;5248;47.374;8.486;2023-03-13T12:23:41;0.50;;;0.50;;
10403;SDS011;5248;47.374;8.486;2023-03-13T12:26:12;0.40;;;0.32;;
10403;SDS011;5248;47.374;8.486;2023-03-13T12:28:42;0.60;;;0.60;;
10403;SDS011;5248;47.374;8.486;2023-03-13T12:31:20;3.25;;;0.63;;
10403;SDS011;5248;47.374;8.486;2023-03-13T12:33:55;0.95;;;0.60;;
10403;SDS011;5248;47.374;8.486;2023-03-13T12:36:25;2.15;;;0.65;;
10403;SDS011;5248;47.374;8.486;2023-03-13T12:38:55;1.23;;;0.60;;
10403;SDS011;5248;47.374;8.486;2023-03-13T12:41:23;1.15;;;0.80;;
10403;SDS011;5248;47.374;8.486;2023-03-13T12:43:52;1.05;;;0.80;;
10403;SDS011;5248;47.374;8.486;2023-03-13T12:46:37;0.80;;;0.80;;
10403;SDS011;5248;47.374;8.486;2023-03-13T12:55:01;0.50;;;0.50;;
10403;SDS011;5248;47.374;8.486;2023-03-13T12:57:54;1.08;;;0.65;;
10403;SDS011;5248;47.374;8.486;2023-03-13T13:00:31;1.45;;;0.63;;
10403;SDS011;5248;47.374;8.486;2023-03-13T13:03:03;0.50;;;0.45;;
10403;SDS011;5248;47.374;8.486;2023-03-13T13:05:34;0.75;;;0.60;;
10403;SDS011;5248;47.374;8.486;2023-03-13T13:08:01;0.60;;;0.60;;
10403;SDS011;5248;47.374;8.486;2023-03-13T13:10:28;1.13;;;0.52;;
10403;SDS011;5248;47.374;8.486;2023-03-13T13:15:45;0.60;;;0.60;;
10403;SDS011;5248;47.374;8.486;2023-03-13T13:18:14;1.10;;;0.70;;
10403;SDS011;5248;47.374;8.486;2023-03-13T13:24:05;0.32;;;0.32;;
10403;SDS011;5248;47.374;8.486;2023-03-13T13:27:24;0.47;;;0.43;;
10403;SDS011;5248;47.374;8.486;2023-03-13T13:29:55;0.50;;;0.50;;
10403;SDS011;5248;47.374;8.486;2023-03-13T13:32:35;1.17;;;0.57;;
10403;SDS011;5248;47.374;8.486;2023-03-13T13:35:19;0.50;;;0.50;;
10403;SDS011;5248;47.374;8.486;2023-03-13T13:37:50;1.05;;;0.57;;
10403;SDS011;5248;47.374;8.486;2023-03-13T13:40:18;0.45;;;0.40;;
10403;SDS011;5248;47.374;8.486;2023-03-13T13:42:47;0.55;;;0.50;;
10403;SDS011;5248;47.374;8.486;2023-03-13T13:45:25;0.95;;;0.50;;
10403;SDS011;5248;47.374;8.486;2023-03-13T13:53:48;0.77;;;0.50;;
10403;SDS011;5248;47.374;8.486;2023-03-13T13:56:27;0.50;;;0.50;;
10403;SDS011;5248;47.374;8.486;2023-03-13T13:58:56;0.52;;;0.52;;
10403;SDS011;5248;47.374;8.486;2023-03-13T14:01:24;1.02;;;0.68;;
10403;SDS011;5248;47.374;8.486;2023-03-13T14:03:52;0.88;;;0.88;;
10403;SDS011;5248;47.374;8.486;2023-03-13T14:06:21;0.65;;;0.50;;
10403;SDS011;5248;47.374;8.486;2023-03-13T14:08:51;0.70;;;0.70;;
10403;SDS011;5248;47.374;8.486;2023-03-13T14:11:22;1.80;;;0.70;;
10403;SDS011;5248;47.374;8.486;2023-03-13T14:16:35;1.77;;;0.57;;
10403;SDS011;5248;47.374;8.486;2023-03-13T14:19:02;0.70;;;0.70;;
10403;SDS011;5248;47.374;8.486;2023-03-13T14:21:30;0.60;;;0.60;;
10403;SDS011;5248;47.374;8.486;2023-03-13T14:23:58;0.80;;;0.73;;
10403;SDS011;5248;47.374;8.486;2023-03-13T14:26:25;2.58;;;0.80;;
10403;SDS011;5248;47.374;8.486;2023-03-13T14:28:53;0.50;;;0.50;;
10403;SDS011;5248;47.374;8.486;2023-03-13T14:31:24;0.98;;;0.80;;
10403;SDS011;5248;47.374;8.486;2023-03-13T14:33:52;0.73;;;0.73;;
10403;SDS011;5248;47.374;8.486;2023-03-13T14:36:20;1.10;;;0.80;;
10403;SDS011;5248;47.374;8.486;2023-03-13T14:38:51;1.10;;;0.57;;
10403;SDS011;5248;47.374;8.486;2023-03-13T14:41:21;2.22;;;0.50;;
10403;SDS011;5248;47.374;8.486;2023-03-13T14:43:49;0.70;;;0.65;;
10403;SDS011;5248;47.374;8.486;2023-03-13T14:46:19;0.43;;;0.43;;
10403;SDS011;5248;47.374;8.486;2023-03-13T14:48:52;0.55;;;0.55;;
10403;SDS011;5248;47.374;8.486;2023-03-13T14:51:20;0.60;;;0.60;;
10403;SDS011;5248;47.374;8.486;2023-03-13T14:53:55;1.80;;;0.88;;
10403;SDS011;5248;47.374;8.486;2023-03-13T14:56:30;1.02;;;0.90;;
10403;SDS011;5248;47.374;8.486;2023-03-13T14:59:05;2.10;;;0.65;;
10403;SDS011;5248;47.374;8.486;2023-03-13T15:01:32;1.25;;;0.57;;
10403;SDS011;5248;47.374;8.486;2023-03-13T15:03:59;0.50;;;0.50;;
10403;SDS011;5248;47.374;8.486;2023-03-13T15:06:25;1.30;;;0.90;;
10403;SDS011;5248;47.374;8.486;2023-03-13T15:11:53;0.85;;;0.70;;
10403;SDS011;5248;47.374;8.486;2023-03-13T15:14:30;3.20;;;0.93;;
10403;SDS011;5248;47.374;8.486;2023-03-13T15:16:58;0.85;;;0.75;;
10403;SDS011;5248;47.374;8.486;2023-03-13T15:19:24;0.98;;;0.75;;
10403;SDS011;5248;47.374;8.486;2023-03-13T15:21:50;0.65;;;0.60;;
10403;SDS011;5248;47.374;8.486;2023-03-13T15:24:20;1.17;;;0.68;;
10403;SDS011;5248;47.374;8.486;2023-03-13T15:26:46;0.75;;;0.75;;
10403;SDS011;5248;47.374;8.486;2023-03-13T15:29:12;0.80;;;0.70;;
10403;SDS011;5248;47.374;8.486;2023-03-13T15:31:41;0.70;;;0.70;;
10403;SDS011;5248;47.374;8.486;2023-03-13T15:34:09;0.82;;;0.80;;
10403;SDS011;5248;47.374;8.486;2023-03-13T15:36:37;0.50;;;0.50;;
10403;SDS011;5248;47.374;8.486;2023-03-13T15:39:08;1.65;;;0.80;;